sensor_id;sensor_type;location;lat;lon;timestamp;temperature;humidity
58153;DHT22;43967;51.634;5.566;2023-07-02T00:00:20;23.70;61.50
58153;DHT22;43967;51.634;5.566;2023-07-02T00:05:44;23.70;61.50
58153;DHT22;43967;51.634;5.566;2023-07-02T00:11:09;23.70;61.40
58153;DHT22;43967;51.634;5.566;2023-07-02T00:16:30;23.70;61.40
58153;DHT22;43967;51.634;5.566;2023-07-02T00:21:51;23.70;61.40
58153;DHT22;43967;51.634;5.566;2023-07-02T00:27:13;23.70;61.40
58153;DHT22;43967;51.634;5.566;2023-07-02T00:32:34;23.70;61.30
58153;DHT22;43967;51.634;5.566;2023-07-02T00:37:58;23.70;61.30
58153;DHT22;43967;51.634;5.566;2023-07-02T00:43:26;23.70;61.40
58153;DHT22;43967;51.634;5.566;2023-07-02T00:48:51;23.70;61.30
58153;DHT22;43967;51.634;5.566;2023-07-02T00:54:18;23.70;61.30
58153;DHT22;43967;51.634;5.566;2023-07-02T00:59:40;23.60;61.30
58153;DHT22;43967;51.634;5.566;2023-07-02T01:05:04;23.60;61.30
58153;DHT22;43967;51.634;5.566;2023-07-02T01:10:25;23.60;61.30
58153;DHT22;43967;51.634;5.566;2023-07-02T01:15:47;23.60;61.30
58153;DHT22;43967;51.634;5.566;2023-07-02T01:21:12;23.60;61.20
58153;DHT22;43967;51.634;5.566;2023-07-02T01:26:39;23.60;61.20
58153;DHT22;43967;51.634;5.566;2023-07-02T01:32:00;23.60;61.20
58153;DHT22;43967;51.634;5.566;2023-07-02T01:37:21;23.60;61.20
58153;DHT22;43967;51.634;5.566;2023-07-02T01:42:43;23.60;61.20
58153;DHT22;43967;51.634;5.566;2023-07-02T01:48:05;23.60;61.20
58153;DHT22;43967;51.634;5.566;2023-07-02T01:53:26;23.60;61.20
58153;DHT22;43967;51.634;5.566;2023-07-02T01:58:50;23.60;61.20
58153;DHT22;43967;51.634;5.566;2023-07-02T02:04:15;23.60;61.20
58153;DHT22;43967;51.634;5.566;2023-07-02T02:09:37;23.60;61.20
58153;DHT22;43967;51.634;5.566;2023-07-02T02:15:04;23.50;61.20
58153;DHT22;43967;51.634;5.566;2023-07-02T02:20:25;23.50;61.10
58153;DHT22;43967;51.634;5.566;2023-07-02T02:25:47;23.50;61.10
58153;DHT22;43967;51.634;5.566;2023-07-02T02:31:15;23.50;61.10
58153;DHT22;43967;51.634;5.566;2023-07-02T02:36:40;23.50;61.20
58153;DHT22;43967;51.634;5.566;2023-07-02T02:42:01;23.50;61.10
58153;DHT22;43967;51.634;5.566;2023-07-02T02:47:30;23.50;61.10
58153;DHT22;43967;51.634;5.566;2023-07-02T02:52:53;23.50;61.10
58153;DHT22;43967;51.634;5.566;2023-07-02T02:58:20;23.50;61.00
58153;DHT22;43967;51.634;5.566;2023-07-02T03:03:42;23.50;61.00
58153;DHT22;43967;51.634;5.566;2023-07-02T03:09:03;23.50;61.00
58153;DHT22;43967;51.634;5.566;2023-07-02T03:14:43;23.50;61.00
58153;DHT22;43967;51.634;5.566;2023-07-02T03:20:05;23.50;61.00
58153;DHT22;43967;51.634;5.566;2023-07-02T03:25:27;23.40;60.90
58153;DHT22;43967;51.634;5.566;2023-07-02T03:30:58;23.50;60.90
58153;DHT22;43967;51.634;5.566;2023-07-02T03:36:31;23.40;60.90
58153;DHT22;43967;51.634;5.566;2023-07-02T03:41:59;23.50;60.90
58153;DHT22;43967;51.634;5.566;2023-07-02T03:47:21;23.40;60.80
58153;DHT22;43967;51.634;5.566;2023-07-02T03:52:47;23.40;60.70
58153;DHT22;43967;51.634;5.566;2023-07-02T03:58:11;23.40;60.70
58153;DHT22;43967;51.634;5.566;2023-07-02T04:03:37;23.40;60.70
58153;DHT22;43967;51.634;5.566;2023-07-02T04:08:59;23.40;60.70
58153;DHT22;43967;51.634;5.566;2023-07-02T04:14:23;23.40;61.40
58153;DHT22;43967;51.634;5.566;2023-07-02T04:20:04;23.40;60.60
58153;DHT22;43967;51.634;5.566;2023-07-02T04:25:25;23.40;60.60
58153;DHT22;43967;51.634;5.566;2023-07-02T04:30:47;23.40;60.60
58153;DHT22;43967;51.634;5.566;2023-07-02T04:36:23;23.40;60.60
58153;DHT22;43967;51.634;5.566;2023-07-02T04:41:45;23.40;60.50
58153;DHT22;43967;51.634;5.566;2023-07-02T04:47:06;23.40;60.50
58153;DHT22;43967;51.634;5.566;2023-07-02T04:52:37;23.40;60.50
58153;DHT22;43967;51.634;5.566;2023-07-02T04:57:59;23.50;60.40
58153;DHT22;43967;51.634;5.566;2023-07-02T05:03:24;23.40;60.30
58153;DHT22;43967;51.634;5.566;2023-07-02T05:08:45;23.40;60.20
58153;DHT22;43967;51.634;5.566;2023-07-02T05:14:07;23.50;60.20
58153;DHT22;43967;51.634;5.566;2023-07-02T05:19:31;23.50;60.80
58153;DHT22;43967;51.634;5.566;2023-07-02T05:24:53;23.50;60.00
58153;DHT22;43967;51.634;5.566;2023-07-02T05:30:15;23.50;60.10
58153;DHT22;43967;51.634;5.566;2023-07-02T05:35:39;23.50;60.00
58153;DHT22;43967;51.634;5.566;2023-07-02T05:41:03;23.50;60.00
58153;DHT22;43967;51.634;5.566;2023-07-02T05:46:25;23.50;59.90
58153;DHT22;43967;51.634;5.566;2023-07-02T05:51:47;23.50;59.80
58153;DHT22;43967;51.634;5.566;2023-07-02T05:57:12;23.60;59.70
58153;DHT22;43967;51.634;5.566;2023-07-02T06:02:33;23.60;59.70
58153;DHT22;43967;51.634;5.566;2023-07-02T06:07:55;23.60;59.50
58153;DHT22;43967;51.634;5.566;2023-07-02T06:13:24;23.60;59.50
58153;DHT22;43967;51.634;5.566;2023-07-02T06:18:48;23.60;59.50
58153;DHT22;43967;51.634;5.566;2023-07-02T06:24:09;23.70;59.50
58153;DHT22;43967;51.634;5.566;2023-07-02T06:29:31;23.70;59.30
58153;DHT22;43967;51.634;5.566;2023-07-02T06:34:52;23.70;59.30
58153;DHT22;43967;51.634;5.566;2023-07-02T06:40:37;23.70;59.30
58153;DHT22;43967;51.634;5.566;2023-07-02T06:45:57;23.80;59.10
58153;DHT22;43967;51.634;5.566;2023-07-02T06:51:19;23.90;58.70
58153;DHT22;43967;51.634;5.566;2023-07-02T06:56:40;24.00;58.50
58153;DHT22;43967;51.634;5.566;2023-07-02T07:02:02;24.00;58.40
58153;DHT22;43967;51.634;5.566;2023-07-02T07:07:23;24.20;57.80
58153;DHT22;43967;51.634;5.566;2023-07-02T07:12:45;24.30;57.50
58153;DHT22;43967;51.634;5.566;2023-07-02T07:18:11;24.20;58.40
58153;DHT22;43967;51.634;5.566;2023-07-02T07:23:32;24.10;58.80
58153;DHT22;43967;51.634;5.566;2023-07-02T07:28:54;24.10;59.50
58153;DHT22;43967;51.634;5.566;2023-07-02T07:34:15;24.10;59.80
58153;DHT22;43967;51.634;5.566;2023-07-02T07:39:37;24.10;59.90
58153;DHT22;43967;51.634;5.566;2023-07-02T07:44:58;24.40;59.20
58153;DHT22;43967;51.634;5.566;2023-07-02T07:50:19;24.60;58.80
58153;DHT22;43967;51.634;5.566;2023-07-02T07:55:40;24.60;59.00
58153;DHT22;43967;51.634;5.566;2023-07-02T08:01:02;24.60;57.80
58153;DHT22;43967;51.634;5.566;2023-07-02T08:06:24;24.50;55.80
58153;DHT22;43967;51.634;5.566;2023-07-02T08:11:46;24.40;55.30
58153;DHT22;43967;51.634;5.566;2023-07-02T08:17:07;24.40;54.70
58153;DHT22;43967;51.634;5.566;2023-07-02T08:22:28;24.30;55.00
58153;DHT22;43967;51.634;5.566;2023-07-02T08:27:50;24.20;53.90
58153;DHT22;43967;51.634;5.566;2023-07-02T08:33:11;24.10;53.20
58153;DHT22;43967;51.634;5.566;2023-07-02T08:38:32;24.10;53.20
58153;DHT22;43967;51.634;5.566;2023-07-02T08:43:55;24.20;53.40
58153;DHT22;43967;51.634;5.566;2023-07-02T08:49:17;24.20;52.80
58153;DHT22;43967;51.634;5.566;2023-07-02T08:54:38;24.20;52.70
58153;DHT22;43967;51.634;5.566;2023-07-02T08:59:59;24.10;52.40
58153;DHT22;43967;51.634;5.566;2023-07-02T09:05:21;24.00;51.90
58153;DHT22;43967;51.634;5.566;2023-07-02T09:10:43;24.00;51.90
58153;DHT22;43967;51.634;5.566;2023-07-02T09:16:04;24.10;53.30
58153;DHT22;43967;51.634;5.566;2023-07-02T09:21:27;24.20;53.40
58153;DHT22;43967;51.634;5.566;2023-07-02T09:26:55;24.10;53.30
58153;DHT22;43967;51.634;5.566;2023-07-02T09:32:24;24.00;54.10
58153;DHT22;43967;51.634;5.566;2023-07-02T09:37:46;24.00;54.50
58153;DHT22;43967;51.634;5.566;2023-07-02T09:43:15;24.00;53.90
58153;DHT22;43967;51.634;5.566;2023-07-02T09:48:36;24.00;53.20
58153;DHT22;43967;51.634;5.566;2023-07-02T09:53:57;24.10;53.40
58153;DHT22;43967;51.634;5.566;2023-07-02T09:59:19;24.10;53.10
58153;DHT22;43967;51.634;5.566;2023-07-02T10:04:47;24.00;53.40
58153;DHT22;43967;51.634;5.566;2023-07-02T10:10:09;24.00;53.30
58153;DHT22;43967;51.634;5.566;2023-07-02T10:15:31;24.00;52.50
58153;DHT22;43967;51.634;5.566;2023-07-02T10:20:53;24.00;52.30
58153;DHT22;43967;51.634;5.566;2023-07-02T10:26:16;24.00;52.20
58153;DHT22;43967;51.634;5.566;2023-07-02T10:31:48;24.00;53.00
58153;DHT22;43967;51.634;5.566;2023-07-02T10:37:09;24.00;53.10
58153;DHT22;43967;51.634;5.566;2023-07-02T10:42:31;24.00;52.50
58153;DHT22;43967;51.634;5.566;2023-07-02T10:47:52;24.00;51.90
58153;DHT22;43967;51.634;5.566;2023-07-02T10:53:20;24.00;53.30
58153;DHT22;43967;51.634;5.566;2023-07-02T10:58:47;24.10;53.10
58153;DHT22;43967;51.634;5.566;2023-07-02T11:04:08;24.10;52.90
58153;DHT22;43967;51.634;5.566;2023-07-02T11:09:30;24.10;53.20
58153;DHT22;43967;51.634;5.566;2023-07-02T11:14:52;24.10;54.20
58153;DHT22;43967;51.634;5.566;2023-07-02T11:20:40;24.10;54.30
58153;DHT22;43967;51.634;5.566;2023-07-02T11:26:02;24.10;52.70
58153;DHT22;43967;51.634;5.566;2023-07-02T11:31:26;24.10;52.60
58153;DHT22;43967;51.634;5.566;2023-07-02T11:36:48;24.00;52.80
58153;DHT22;43967;51.634;5.566;2023-07-02T11:42:10;24.00;51.10
58153;DHT22;43967;51.634;5.566;2023-07-02T11:47:31;24.00;50.30
58153;DHT22;43967;51.634;5.566;2023-07-02T11:52:53;24.10;52.00
58153;DHT22;43967;51.634;5.566;2023-07-02T11:58:14;24.10;52.20
58153;DHT22;43967;51.634;5.566;2023-07-02T12:03:36;24.10;52.20
58153;DHT22;43967;51.634;5.566;2023-07-02T12:08:57;24.10;52.30
58153;DHT22;43967;51.634;5.566;2023-07-02T12:14:19;24.10;52.40
58153;DHT22;43967;51.634;5.566;2023-07-02T12:19:41;24.00;50.40
58153;DHT22;43967;51.634;5.566;2023-07-02T12:25:03;24.10;52.20
58153;DHT22;43967;51.634;5.566;2023-07-02T12:30:24;24.20;52.10
58153;DHT22;43967;51.634;5.566;2023-07-02T12:35:45;24.20;52.50
58153;DHT22;43967;51.634;5.566;2023-07-02T12:41:07;24.10;52.70
58153;DHT22;43967;51.634;5.566;2023-07-02T12:46:29;24.20;52.80
58153;DHT22;43967;51.634;5.566;2023-07-02T12:51:54;24.20;52.90
58153;DHT22;43967;51.634;5.566;2023-07-02T12:57:17;24.20;53.00
58153;DHT22;43967;51.634;5.566;2023-07-02T13:02:38;24.30;53.10
58153;DHT22;43967;51.634;5.566;2023-07-02T13:08:00;24.30;53.10
58153;DHT22;43967;51.634;5.566;2023-07-02T13:13:21;24.30;53.10
58153;DHT22;43967;51.634;5.566;2023-07-02T13:18:42;24.40;53.20
58153;DHT22;43967;51.634;5.566;2023-07-02T13:24:04;24.30;51.90
58153;DHT22;43967;51.634;5.566;2023-07-02T13:29:25;24.30;50.60
58153;DHT22;43967;51.634;5.566;2023-07-02T13:34:47;24.50;67.80
58153;DHT22;43967;51.634;5.566;2023-07-02T13:40:08;24.50;67.50
58153;DHT22;43967;51.634;5.566;2023-07-02T13:45:30;24.40;61.00
58153;DHT22;43967;51.634;5.566;2023-07-02T13:50:51;24.50;60.60
58153;DHT22;43967;51.634;5.566;2023-07-02T13:56:12;24.50;60.90
58153;DHT22;43967;51.634;5.566;2023-07-02T14:01:33;24.60;61.10
58153;DHT22;43967;51.634;5.566;2023-07-02T14:06:55;24.60;61.60
58153;DHT22;43967;51.634;5.566;2023-07-02T14:12:17;24.60;61.40
58153;DHT22;43967;51.634;5.566;2023-07-02T14:17:38;24.70;61.10
58153;DHT22;43967;51.634;5.566;2023-07-02T14:22:59;24.70;60.90
58153;DHT22;43967;51.634;5.566;2023-07-02T14:28:21;24.80;61.20
58153;DHT22;43967;51.634;5.566;2023-07-02T14:33:43;24.80;61.00
58153;DHT22;43967;51.634;5.566;2023-07-02T14:39:04;24.80;60.60
58153;DHT22;43967;51.634;5.566;2023-07-02T14:44:25;24.80;60.60
58153;DHT22;43967;51.634;5.566;2023-07-02T14:49:47;24.90;60.80
58153;DHT22;43967;51.634;5.566;2023-07-02T14:55:08;24.90;61.10
58153;DHT22;43967;51.634;5.566;2023-07-02T15:00:29;24.80;58.10
58153;DHT22;43967;51.634;5.566;2023-07-02T15:05:51;24.70;55.50
58153;DHT22;43967;51.634;5.566;2023-07-02T15:11:14;24.60;53.90
58153;DHT22;43967;51.634;5.566;2023-07-02T15:16:36;24.60;55.20
58153;DHT22;43967;51.634;5.566;2023-07-02T15:21:57;24.60;54.30
58153;DHT22;43967;51.634;5.566;2023-07-02T15:27:18;24.50;46.20
58153;DHT22;43967;51.634;5.566;2023-07-02T15:32:39;24.40;46.20
58153;DHT22;43967;51.634;5.566;2023-07-02T15:38:01;24.50;46.50
58153;DHT22;43967;51.634;5.566;2023-07-02T15:43:22;24.40;46.00
58153;DHT22;43967;51.634;5.566;2023-07-02T15:48:44;24.40;45.70
58153;DHT22;43967;51.634;5.566;2023-07-02T15:54:05;24.30;45.80
58153;DHT22;43967;51.634;5.566;2023-07-02T15:59:26;24.40;45.60
58153;DHT22;43967;51.634;5.566;2023-07-02T16:04:48;24.40;45.50
58153;DHT22;43967;51.634;5.566;2023-07-02T16:10:10;24.40;45.70
58153;DHT22;43967;51.634;5.566;2023-07-02T16:15:31;24.40;45.60
58153;DHT22;43967;51.634;5.566;2023-07-02T16:20:57;24.40;45.60
58153;DHT22;43967;51.634;5.566;2023-07-02T16:26:18;24.30;45.40
58153;DHT22;43967;51.634;5.566;2023-07-02T16:31:44;24.30;45.70
58153;DHT22;43967;51.634;5.566;2023-07-02T16:37:05;24.20;45.60
58153;DHT22;43967;51.634;5.566;2023-07-02T16:42:27;24.20;45.50
58153;DHT22;43967;51.634;5.566;2023-07-02T16:47:48;24.10;45.60
58153;DHT22;43967;51.634;5.566;2023-07-02T16:53:09;24.10;45.60
58153;DHT22;43967;51.634;5.566;2023-07-02T16:58:31;24.10;45.70
58153;DHT22;43967;51.634;5.566;2023-07-02T17:03:53;24.20;46.40
58153;DHT22;43967;51.634;5.566;2023-07-02T17:09:30;24.10;46.60
58153;DHT22;43967;51.634;5.566;2023-07-02T17:14:52;24.10;46.50
58153;DHT22;43967;51.634;5.566;2023-07-02T17:20:13;24.10;46.30
58153;DHT22;43967;51.634;5.566;2023-07-02T17:25:35;24.00;46.30
58153;DHT22;43967;51.634;5.566;2023-07-02T17:30:57;23.90;46.20
58153;DHT22;43967;51.634;5.566;2023-07-02T17:36:19;24.00;46.30
58153;DHT22;43967;51.634;5.566;2023-07-02T17:41:40;23.90;46.70
58153;DHT22;43967;51.634;5.566;2023-07-02T17:47:04;23.90;46.70
58153;DHT22;43967;51.634;5.566;2023-07-02T17:52:25;23.90;46.90
58153;DHT22;43967;51.634;5.566;2023-07-02T17:57:47;23.90;46.90
58153;DHT22;43967;51.634;5.566;2023-07-02T18:03:08;23.90;47.00
58153;DHT22;43967;51.634;5.566;2023-07-02T18:08:29;23.80;47.40
58153;DHT22;43967;51.634;5.566;2023-07-02T18:13:52;23.70;49.50
58153;DHT22;43967;51.634;5.566;2023-07-02T18:19:13;23.60;50.00
58153;DHT22;43967;51.634;5.566;2023-07-02T18:24:38;23.60;50.20
58153;DHT22;43967;51.634;5.566;2023-07-02T18:30:00;23.70;59.50
58153;DHT22;43967;51.634;5.566;2023-07-02T18:35:21;23.60;56.20
58153;DHT22;43967;51.634;5.566;2023-07-02T18:40:44;23.60;55.20
58153;DHT22;43967;51.634;5.566;2023-07-02T18:46:06;23.70;54.30
58153;DHT22;43967;51.634;5.566;2023-07-02T18:51:27;23.60;53.00
58153;DHT22;43967;51.634;5.566;2023-07-02T18:56:49;23.60;53.20
58153;DHT22;43967;51.634;5.566;2023-07-02T19:02:10;23.50;53.10
58153;DHT22;43967;51.634;5.566;2023-07-02T19:07:32;23.50;53.50
58153;DHT22;43967;51.634;5.566;2023-07-02T19:12:53;23.40;52.60
58153;DHT22;43967;51.634;5.566;2023-07-02T19:18:15;23.40;52.10
58153;DHT22;43967;51.634;5.566;2023-07-02T19:23:36;23.40;52.10
58153;DHT22;43967;51.634;5.566;2023-07-02T19:28:57;23.30;52.00
58153;DHT22;43967;51.634;5.566;2023-07-02T19:34:19;23.30;52.00
58153;DHT22;43967;51.634;5.566;2023-07-02T19:39:40;23.30;51.80
58153;DHT22;43967;51.634;5.566;2023-07-02T19:45:02;23.30;51.60
58153;DHT22;43967;51.634;5.566;2023-07-02T19:50:24;23.30;51.60
58153;DHT22;43967;51.634;5.566;2023-07-02T19:55:45;23.30;51.50
58153;DHT22;43967;51.634;5.566;2023-07-02T20:01:11;23.30;51.60
58153;DHT22;43967;51.634;5.566;2023-07-02T20:06:33;23.30;52.00
58153;DHT22;43967;51.634;5.566;2023-07-02T20:11:55;23.30;52.10
58153;DHT22;43967;51.634;5.566;2023-07-02T20:17:16;23.20;52.10
58153;DHT22;43967;51.634;5.566;2023-07-02T20:22:37;23.40;52.10
58153;DHT22;43967;51.634;5.566;2023-07-02T20:28:00;23.50;52.60
58153;DHT22;43967;51.634;5.566;2023-07-02T20:33:21;23.50;52.90
58153;DHT22;43967;51.634;5.566;2023-07-02T20:38:43;23.60;53.20
58153;DHT22;43967;51.634;5.566;2023-07-02T20:44:05;23.60;53.00
58153;DHT22;43967;51.634;5.566;2023-07-02T20:49:26;23.60;53.00
58153;DHT22;43967;51.634;5.566;2023-07-02T20:54:51;23.60;52.90
58153;DHT22;43967;51.634;5.566;2023-07-02T21:00:13;23.60;52.90
58153;DHT22;43967;51.634;5.566;2023-07-02T21:05:36;23.60;53.00
58153;DHT22;43967;51.634;5.566;2023-07-02T21:10:57;23.70;52.90
58153;DHT22;43967;51.634;5.566;2023-07-02T21:16:18;23.70;52.90
58153;DHT22;43967;51.634;5.566;2023-07-02T21:21:40;23.70;52.90
58153;DHT22;43967;51.634;5.566;2023-07-02T21:27:01;23.70;52.90
58153;DHT22;43967;51.634;5.566;2023-07-02T21:32:23;23.70;52.90
58153;DHT22;43967;51.634;5.566;2023-07-02T21:37:44;23.70;52.90
58153;DHT22;43967;51.634;5.566;2023-07-02T21:43:07;23.70;52.90
58153;DHT22;43967;51.634;5.566;2023-07-02T21:48:29;23.70;53.00
58153;DHT22;43967;51.634;5.566;2023-07-02T21:53:50;23.70;53.00
58153;DHT22;43967;51.634;5.566;2023-07-02T21:59:12;23.70;52.90
58153;DHT22;43967;51.634;5.566;2023-07-02T22:04:34;23.70;52.90
58153;DHT22;43967;51.634;5.566;2023-07-02T22:09:55;23.70;52.90
58153;DHT22;43967;51.634;5.566;2023-07-02T22:15:17;23.70;53.00
58153;DHT22;43967;51.634;5.566;2023-07-02T22:20:38;23.70;53.00
58153;DHT22;43967;51.634;5.566;2023-07-02T22:26:00;23.70;53.00
58153;DHT22;43967;51.634;5.566;2023-07-02T22:31:21;23.70;53.00
58153;DHT22;43967;51.634;5.566;2023-07-02T22:36:43;23.70;53.00
58153;DHT22;43967;51.634;5.566;2023-07-02T22:42:05;23.70;53.00
58153;DHT22;43967;51.634;5.566;2023-07-02T22:47:26;23.70;53.00
58153;DHT22;43967;51.634;5.566;2023-07-02T22:52:49;23.70;53.10
58153;DHT22;43967;51.634;5.566;2023-07-02T22:58:11;23.70;53.00
58153;DHT22;43967;51.634;5.566;2023-07-02T23:03:36;23.60;52.90
58153;DHT22;43967;51.634;5.566;2023-07-02T23:08:58;23.70;53.10
58153;DHT22;43967;51.634;5.566;2023-07-02T23:14:20;23.70;53.10
58153;DHT22;43967;51.634;5.566;2023-07-02T23:19:42;23.70;53.10
58153;DHT22;43967;51.634;5.566;2023-07-02T23:25:04;23.70;53.10
58153;DHT22;43967;51.634;5.566;2023-07-02T23:30:27;23.60;53.10
58153;DHT22;43967;51.634;5.566;2023-07-02T23:35:48;23.60;53.10
58153;DHT22;43967;51.634;5.566;2023-07-02T23:41:11;23.60;53.10
58153;DHT22;43967;51.634;5.566;2023-07-02T23:46:34;23.60;53.20
58153;DHT22;43967;51.634;5.566;2023-07-02T23:51:56;23.60;53.10
58153;DHT22;43967;51.634;5.566;2023-07-02T23:57:18;23.60;53.20
